Terminal Aerodrome Forecast
Issued by NWS

Home | Current Version | Previous Version | Text Only | Print | Product List | Glossary Off
Versions: 1 2 3 4 5 6 7 8 9 10 11 12 13 14 15

000
FTUS43 KBIS 210900 AAA
TAFJMS
TAF AMD
KJMS 210912Z 2109/2206 18015KT P6SM SCT005 SCT012
      TEMPO 2109/2111 BKN005 OVC012
     FM211200 19012KT P6SM SCT090 BKN150
     FM211800 22015KT P6SM SCT150=

USA.gov is the U.S. government's official web portal to all federal, state and local government web resources and services.